Airfield :
LOGIN :

Register | Disclaimer

   EN    FR    IT 

 










Legend :    VFR   Marginal VFR   IFR   Intensive IFR   Very Intensive IFR
Visi :
Ceiling :
>= 8 km
>= 3000ft
5 to 8 km
1000 to 3000 ft
1500m to 5 km
500 to 1000 ft
800 to 1500m
200 to 500 ft
< 800m
< 200 ft
Symbols :   Thunderstorms  Fog  Heavy snow  Heavy precipitations  Wind > 20 kt
SIGMETs :     Misc.  Thunderstorms  Icing  Turbulence  Mountain Waves  Volcanic Ashes






- Airport Elevation : 396 ft


LFOZ - Orléans St Denis

CURRENT METAR :
  • 220030Z AUTO 22017KT 7000 -RA OVC009/// ///TCU 11/10 Q1005

EXPIRED METARs :
  • 220000Z AUTO 21016KT 7000 -RA OVC007/// ///TCU 11/10 Q1006
  • 212330Z AUTO 21016KT 6000 -RA OVC007 11/10 Q1007
  • 212300Z AUTO 21016KT 5000 -RA BR OVC006 10/10 Q1007
  • 212230Z AUTO 21015KT 9000 -RA OVC006 10/09 Q1008
  • 212200Z AUTO 20016KT 6000 -RA OVC006 10/09 Q1008
  • 212130Z AUTO 20015KT 170V230 6000 DZ OVC006 10/09 Q1009
  • 212100Z AUTO 20016KT 7000 OVC009 10/09 Q1009
  • 212030Z AUTO 21016KT 9999 -RA OVC010 10/08 Q1010
  • 212000Z AUTO 20017KT 150V240 9999 -RA BKN012 OVC018 10/08 Q1010

TAF N/A



MET'MAP, your aeronautical weather chart ! - Copyright ORBIFLY December 2007 - Disclaimer

ORBIFLY MET'MAP TEAM :

Programming & Development : Alexandra Zaïnal
Original concept : Baudouin d'Aumeries
Technical & hardware support : Manuel Goepfert
Assistance : Marc-Olivier Méhu




SOURCES & CREDITS :

   NOAA